PWSweather.com
Personal Weather Stations
Station Observations
AF1HS
North Haven, CT 06473

North Haven, CT 06473

Lat: 41.3733, Lon: -72.8413

Elevation: 85.3

Station Type: Oregon Scientific WMR968

http://www.af1hs.com/wx/index.php

Latest ConditionsUpdated 3:10:01 AM EST Monday, Nov 19, 2018
Currently Today's Max Today's Min Today's Average
Temperature 35.6°F2.0°C 35.7°F2.1°C 35.1°F1.7°C 35.3°F1.8°C
Dew Point 22.3°F-5.4°C 22.7°F-5.2°C 21.5°F-5.8°C 22.1°F-5.5°C
Winds Calm Calm Calm -Calm - - Calm Calm
Wind Gusts -- -- - -
Humidity 58% 59% 57% 58%
Pressure 30.36 in1028.1 mb 30.42 in1030.1 mb 30.36 in1028.1 mb -
Hour Temp Dew Point Humidity Winds Wind Gusts Pressure Precip Precip Rate Daily Precip Total
03:10 AM 35.6°F2.0°C 22.3°F-5.4°C 58% Calm Calm -- 30.36 in1028.1 mb - 0.00 in0.0 mm 0.00 in0.0 mm
03:00 AM 35.6°F2.0°C 22.3°F-5.4°C 58% Calm Calm -- 30.36 in1028.1 mb - 0.00 in0.0 mm 0.00 in0.0 mm
02:50 AM 35.6°F2.0°C 22.3°F-5.4°C 58% Calm Calm -- 30.36 in1028.1 mb - 0.00 in0.0 mm 0.00 in0.0 mm
02:40 AM 35.6°F2.0°C 22.7°F-5.2°C 59% Calm Calm -- 30.36 in1028.1 mb - 0.00 in0.0 mm 0.00 in0.0 mm
02:30 AM 35.4°F1.9°C 22.5°F-5.3°C 59% Calm Calm -- 30.39 in1029.1 mb - 0.00 in0.0 mm 0.00 in0.0 mm
02:20 AM 35.3°F1.8°C 22.3°F-5.4°C 59% Calm Calm -- 30.39 in1029.1 mb - 0.00 in0.0 mm 0.00 in0.0 mm
02:10 AM 35.2°F1.8°C 22.3°F-5.4°C 59% Calm Calm -- 30.39 in1029.1 mb - 0.00 in0.0 mm 0.00 in0.0 mm
02:00 AM 35.2°F1.8°C 22.3°F-5.4°C 59% Calm Calm -- 30.39 in1029.1 mb - 0.00 in0.0 mm 0.00 in0.0 mm
01:50 AM 35.1°F1.7°C 22.2°F-5.4°C 59% Calm Calm -- 30.39 in1029.1 mb - 0.00 in0.0 mm 0.00 in0.0 mm
01:40 AM 35.1°F1.7°C 22.2°F-5.4°C 59% Calm Calm -- 30.39 in1029.1 mb - 0.00 in0.0 mm 0.00 in0.0 mm
01:30 AM 35.1°F1.7°C 22.2°F-5.4°C 59% Calm Calm -- 30.39 in1029.1 mb - 0.00 in0.0 mm 0.00 in0.0 mm
01:20 AM 35.1°F1.7°C 22.2°F-5.4°C 59% Calm Calm -- 30.39 in1029.1 mb - 0.00 in0.0 mm 0.00 in0.0 mm
01:10 AM 35.1°F1.7°C 22.2°F-5.4°C 59% Calm Calm -- 30.39 in1029.1 mb - 0.00 in0.0 mm 0.00 in0.0 mm
01:00 AM 35.1°F1.7°C 21.8°F-5.7°C 58% Calm Calm -- 30.39 in1029.1 mb - 0.00 in0.0 mm 0.00 in0.0 mm
12:50 AM 35.2°F1.8°C 21.5°F-5.8°C 57% Calm Calm -- 30.39 in1029.1 mb - 0.00 in0.0 mm 0.00 in0.0 mm
12:40 AM 35.2°F1.8°C 21.5°F-5.8°C 57% Calm Calm -- 30.39 in1029.1 mb - 0.00 in0.0 mm 0.00 in0.0 mm
12:30 AM 35.6°F2.0°C 21.9°F-5.6°C 57% Calm Calm -- 30.39 in1029.1 mb - 0.00 in0.0 mm 0.00 in0.0 mm
12:20 AM 35.4°F1.9°C 21.7°F-5.7°C 57% Calm Calm -- 30.39 in1029.1 mb - 0.00 in0.0 mm 0.00 in0.0 mm
12:10 AM 35.6°F2.0°C 21.9°F-5.6°C 57% Calm Calm -- 30.39 in1029.1 mb - 0.00 in0.0 mm 0.00 in0.0 mm
12:00 AM 35.7°F2.1°C 22.0°F-5.6°C 57% Calm Calm -- 30.42 in1030.1 mb - 0.00 in0.0 mm 0.00 in0.0 mm